Stormwatcher's Retreat Logo




                  Temp     Hi    Low   Out    Dew  Wind  Wind   Wind    Hi    Hi   Wind   Heat    THW   THSW                Rain  Solar   Solar Hi Solar   UV    UV    Hi     Heat    Cool    In     In    In     In     In   In Air          Wind  Wind    ISS   Arc.
  Date    Time     Out   Temp   Temp   Hum    Pt. Speed   Dir    Run Speed   Dir  Chill  Index  Index  Index   Bar    Rain  Rate   Rad.  Energy    Rad.  Index  Dose   UV     D-D     D-D    Temp   Hum    Dew   Heat    EMC Density     ET   Samp   Tx   Recept  Int.
------------------------------------------------------------------------------------------------------------------------------------------------------------------------------------------------------------------------------------------------------------------------
10/18/18 12:10a   49.6   49.6   49.5    92   47.4   4.0   SSW   0.67   7.0   SSW   48.4   50.0   48.8   46.2  30.156  0.00  0.00     0     0.00      0     0.0  0.00   0.0   0.107   0.000   75.4    46   53.2   75.1   8.54  .0737    0.000   210    5    100.0   10 
10/18/18 12:20a   49.6   49.6   49.5    92   47.4   3.0   SSW   0.50   6.0     S   49.2   50.0   49.6   47.0  30.155  0.00  0.00     0     0.00      0     0.0  0.00   0.0   0.107   0.000   75.4    46   53.2   75.1   8.54  .0737    0.000   209    5    100.0   10 
10/18/18 12:30a   49.9   49.9   49.6    92   47.7   3.0   SSW   0.50   6.0    SW   49.6   50.3   50.0   47.4  30.156  0.00  0.00     0     0.00      0     0.0  0.00   0.0   0.105   0.000   75.3    46   53.1   75.1   8.54  .0738    0.000   214    5    100.0   10 
10/18/18 12:40a   50.2   50.2   49.9    92   48.0   2.0     S   0.33   5.0   SSW   50.2   50.6   50.6   48.0  30.152  0.00  0.00     0     0.00      0     0.0  0.00   0.0   0.103   0.000   75.3    46   53.1   75.1   8.54  .0737    0.000   212    5    100.0   10 
10/18/18 12:50a   50.4   50.4   50.2    92   48.2   2.0     S   0.33   4.0    SW   50.4   50.7   50.7   48.1  30.153  0.00  0.00     0     0.00      0     0.0  0.00   0.0   0.101   0.000   75.2    46   53.0   75.0   8.55  .0738    0.000   212    5    100.0   10 
10/18/18  1:00a   50.3   50.5   50.3    92   48.1   4.0    SW   0.67  10.0   SSE   49.2   50.7   49.6   47.0  30.153  0.00  0.00     0     0.00      0     0.0  0.00   0.0   0.102   0.000   75.1    46   52.9   74.9   8.55  .0738    0.000   214    5    100.0   10 
10/18/18  1:10a   50.1   50.3   50.0    92   47.9   5.0   SSW   0.83   9.0   SSE   48.3   50.5   48.7   46.1  30.156  0.00  0.00     0     0.00      0     0.0  0.00   0.0   0.103   0.000   75.1    46   52.9   74.9   8.55  .0738    0.000   212    5    100.0   10 
10/18/18  1:20a   50.1   50.1   49.9    92   47.9   4.0   SSW   0.67   6.0   SSW   49.0   50.5   49.4   46.8  30.156  0.00  0.00     0     0.00      0     0.0  0.00   0.0   0.103   0.000   75.1    46   52.9   74.9   8.55  .0738    0.000   212    5    100.0   10 
10/18/18  1:30a   50.1   50.1   50.0    92   47.9   3.0   SSW   0.50   6.0   SSE   49.8   50.5   50.2   47.6  30.156  0.00  0.00     0     0.00      0     0.0  0.00   0.0   0.103   0.000   75.0    46   52.8   74.8   8.55  .0738    0.000   212    5    100.0   10 
10/18/18  1:40a   50.2   50.2   50.1    92   48.0   3.0   SSW   0.50   6.0   SSW   49.9   50.6   50.3   47.7  30.154  0.00  0.00     0     0.00      0     0.0  0.00   0.0   0.103   0.000   74.9    46   52.7   74.6   8.55  .0738    0.000   210    5    100.0   10 
10/18/18  1:50a   50.3   50.3   50.2    92   48.1   2.0   SSW   0.33   5.0   SSE   50.3   50.7   50.7   48.1  30.148  0.00  0.00     0     0.00      0     0.0  0.00   0.0   0.102   0.000   74.9    46   52.7   74.6   8.55  .0738    0.000   212    5    100.0   10 
10/18/18  2:00a   50.4   50.4   50.3    92   48.2   3.0   SSW   0.50   6.0     S   50.1   50.7   50.4   47.8  30.144  0.00  0.00     0     0.00      0     0.0  0.00   0.0   0.101   0.000   74.8    46   52.6   74.5   8.55  .0738    0.000   213    5    100.0   10 
10/18/18  2:10a   50.4   50.4   50.3    92   48.2   4.0    SW   0.67   7.0   WSW   49.3   50.7   49.6   47.0  30.152  0.00  0.00     0     0.00      0     0.0  0.00   0.0   0.101   0.000   74.8    46   52.6   74.5   8.55  .0738    0.000   210    5    100.0   10 
10/18/18  2:20a   50.2   50.4   50.2    92   48.0   3.0    SW   0.50   6.0   WSW   49.9   50.6   50.3   47.7  30.159  0.00  0.00     0     0.00      0     0.0  0.00   0.0   0.103   0.000   74.7    46   52.5   74.4   8.56  .0739    0.000   211    5    100.0   10 
10/18/18  2:30a   50.1   50.2   50.1    93   48.2   2.0    SW   0.33   5.0    SW   50.1   50.5   50.5   47.9  30.158  0.00  0.00     0     0.00      0     0.0  0.00   0.0   0.103   0.000   74.7    46   52.5   74.4   8.56  .0739    0.000   213    5    100.0   10 
10/18/18  2:40a   50.1   50.1   50.1    93   48.2   1.0    SW   0.17   3.0   SSW   50.1   50.5   50.5   47.9  30.155  0.00  0.00     0     0.00      0     0.0  0.00   0.0   0.103   0.000   74.6    46   52.4   74.3   8.56  .0739    0.000   213    5    100.0   10 
10/18/18  2:50a   49.7   50.2   49.7    93   47.8   1.0   SSW   0.17   3.0    SW   49.7   50.1   50.1   47.5  30.152  0.00  0.00     0     0.00      0     0.0  0.00   0.0   0.106   0.000   74.6    46   52.4   74.3   8.56  .0739    0.000   209    5    100.0   10 
10/18/18  3:00a   49.8   49.8   49.7    93   47.9   1.0   SSW   0.17   2.0   SSW   49.8   50.2   50.2   47.6  30.154  0.00  0.00     0     0.00      0     0.0  0.00   0.0   0.106   0.000   74.5    46   52.4   74.1   8.56  .0739    0.000   211    5    100.0   10 
10/18/18  3:10a   50.0   50.0   49.8    93   48.1   1.0    SW   0.17   3.0   WSW   50.0   50.4   50.4   47.8  30.148  0.00  0.00     0     0.00      0     0.0  0.00   0.0   0.104   0.000   74.4    46   52.3   74.0   8.56  .0739    0.000   213    5    100.0   10 
10/18/18  3:20a   49.8   50.0   49.8    93   47.9   1.0    SW   0.17   3.0    SW   49.8   50.2   50.2   47.6  30.149  0.00  0.00     0     0.00      0     0.0  0.00   0.0   0.106   0.000   74.4    46   52.3   74.0   8.56  .0739    0.000   212    5    100.0   10 
10/18/18  3:30a   49.7   49.9   49.7    93   47.8   2.0    SW   0.33   3.0   WSW   49.7   50.1   50.1   47.5  30.149  0.00  0.00     0     0.00      0     0.0  0.00   0.0   0.106   0.000   74.3    46   52.2   73.9   8.56  .0739    0.000   212    5    100.0   10 
10/18/18  3:40a   49.5   49.7   49.5    93   47.6   2.0   WNW   0.33   3.0     W   49.5   49.9   49.9   47.3  30.148  0.00  0.00     0     0.00      0     0.0  0.00   0.0   0.108   0.000   74.3    46   52.2   73.9   8.56  .0739    0.000   211    5    100.0   10 
10/18/18  3:50a   49.6   49.6   49.5    93   47.7   2.0     W   0.33   4.0    SW   49.6   50.0   50.0   47.4  30.151  0.00  0.00     0     0.00      0     0.0  0.00   0.0   0.107   0.000   74.2    46   52.1   73.7   8.57  .0739    0.000   212    5    100.0   10 
10/18/18  4:00a   48.9   49.6   48.9    92   46.7   1.0   SSW   0.17   4.0     S   48.9   49.3   49.3   46.6  30.152  0.00  0.00     0     0.00      0     0.0  0.00   0.0   0.112   0.000   74.2    46   52.1   73.7   8.57  .0739    0.000   214    5    100.0   10 
10/18/18  4:10a   48.6   48.9   48.6    93   46.7   1.0   SSE   0.17   2.0   SSE   48.6   49.0   49.0   46.3  30.159  0.00  0.00     0     0.00      0     0.0  0.00   0.0   0.114   0.000   74.1    46   52.0   73.6   8.57  .0740    0.000   212    5    100.0   10 
10/18/18  4:20a   48.6   48.6   48.5    93   46.7   1.0   SSE   0.17   3.0   SSW   48.6   49.0   49.0   46.3  30.164  0.00  0.00     0     0.00      0     0.0  0.00   0.0   0.114   0.000   74.0    46   51.9   73.5   8.57  .0740    0.000   213    5    100.0   10 
10/18/18  4:30a   48.6   48.7   48.5    93   46.7   0.0   SSW   0.00   2.0   SSW   48.6   49.0   49.0   46.3  30.171  0.00  0.00     0     0.00      0     0.0  0.00   0.0   0.114   0.000   74.0    46   51.9   73.5   8.57  .0740    0.000   213    5    100.0   10 
10/18/18  4:40a   48.8   48.8   48.5    93   46.9   1.0     S   0.17   2.0     S   48.8   49.2   49.2   46.5  30.182  0.00  0.00     0     0.00      0     0.0  0.00   0.0   0.113   0.000   73.9    46   51.8   73.3   8.57  .0741    0.000   213    5    100.0   10 
10/18/18  4:50a   49.1   49.1   48.8    93   47.2   0.0     S   0.00   1.0     S   49.1   49.5   49.5   46.9  30.185  0.00  0.00     0     0.00      0     0.0  0.00   0.0   0.110   0.000   73.9    46   51.8   73.3   8.57  .0741    0.000   213    5    100.0   10 
10/18/18  5:00a   49.1   49.1   49.0    93   47.2   0.0   ---   0.00   0.0   ---   49.1   49.5   49.5   46.9  30.188  0.00  0.00     0     0.00      0     0.0  0.00   0.0   0.110   0.000   73.8    46   51.7   73.2   8.57  .0741    0.000   212    5    100.0   10 
10/18/18  5:10a   49.1   49.1   49.1    93   47.2   0.0   ---   0.00   0.0   ---   49.1   49.5   49.5   46.9  30.185  0.00  0.00     0     0.00      0     0.0  0.00   0.0   0.110   0.000   73.7    46   51.6   73.1   8.58  .0741    0.000   211    5    100.0   10 
10/18/18  5:20a   49.4   49.4   49.1    93   47.5   0.0     S   0.00   2.0     S   49.4   49.8   49.8   47.2  30.183  0.00  0.00     0     0.00      0     0.0  0.00   0.0   0.108   0.000   73.7    46   51.6   73.1   8.58  .0741    0.000   213    5    100.0   10 
10/18/18  5:30a   49.6   49.6   49.4    93   47.7   1.0     S   0.17   4.0   SSE   49.6   50.0   50.0   47.4  30.186  0.00  0.00     0     0.00      0     0.0  0.00   0.0   0.107   0.000   73.6    46   51.5   72.9   8.58  .0741    0.000   210    5    100.0   10 
10/18/18  5:40a   49.6   49.7   49.5    93   47.7   0.0     S   0.00   1.0     S   49.6   50.0   50.0   47.4  30.193  0.00  0.00     0     0.00      0     0.0  0.00   0.0   0.107   0.000   73.6    46   51.5   72.9   8.58  .0741    0.000   213    5    100.0   10 
10/18/18  5:50a   49.7   49.8   49.6    93   47.8   1.0   SSE   0.17   2.0   SSE   49.7   50.1   50.1   47.5  30.196  0.00  0.00     0     0.00      0     0.0  0.00   0.0   0.106   0.000   73.5    46   51.4   72.8   8.58  .0742    0.000   214    5    100.0   10 
10/18/18  6:00a   49.8   49.8   49.7    93   47.9   0.0    SE   0.00   2.0    SE   49.8   50.2   50.2   47.6  30.199  0.00  0.00     0     0.00      0     0.0  0.00   0.0   0.106   0.000   73.5    46   51.4   72.8   8.58  .0742    0.000   213    5    100.0   10 
10/18/18  6:10a   49.9   49.9   49.8    93   48.0   1.0    SE   0.17   3.0   ENE   49.9   50.3   50.3   47.7  30.203  0.00  0.00     0     0.00      0     0.0  0.00   0.0   0.105   0.000   73.4    46   51.4   72.7   8.58  .0742    0.000   212    5    100.0   10 
10/18/18  6:20a   50.0   50.0   49.9    93   48.1   1.0   ENE   0.17   4.0   ENE   50.0   50.4   50.4   47.8  30.202  0.00  0.00     0     0.00      0     0.0  0.00   0.0   0.104   0.000   73.3    46   51.3   72.6   8.58  .0742    0.000   212    5    100.0   10 
10/18/18  6:30a   50.1   50.1   50.0    93   48.2   1.0     E   0.17   2.0   ENE   50.1   50.5   50.5   47.9  30.200  0.00  0.00     0     0.00      0     0.0  0.00   0.0   0.103   0.000   73.3    46   51.3   72.6   8.58  .0742    0.000   210    5    100.0   10 
10/18/18  6:40a   50.1   50.1   50.1    93   48.2   1.0     E   0.17   3.0   ESE   50.1   50.5   50.5   47.9  30.192  0.00  0.00     0     0.00      0     0.0  0.00   0.0   0.103   0.000   73.2    46   51.2   72.4   8.59  .0742    0.000   209    5    100.0   10 
10/18/18  6:50a   50.0   50.1   50.0    93   48.1   1.0   ESE   0.17   3.0    SE   50.0   50.4   50.4   47.8  30.189  0.00  0.00     0     0.00      0     0.0  0.00   0.0   0.104   0.000   73.2    46   51.2   72.4   8.59  .0742    0.000   213    5    100.0   10 
10/18/18  7:00a   50.0   50.0   50.0    93   48.1   2.0   ESE   0.33   5.0    SE   50.0   50.4   50.4   47.8  30.187  0.00  0.00     0     0.00      0     0.0  0.00   0.0   0.104   0.000   73.1    46   51.1   72.3   8.59  .0742    0.000   210    5    100.0   10 
10/18/18  7:10a   49.0   50.0   49.0    92   46.8   4.0   ESE   0.67   8.0   ESE   47.7   49.4   48.1   45.4  30.180  0.00  0.00     0     0.00      0     0.0  0.00   0.0   0.111   0.000   73.1    46   51.1   72.3   8.59  .0742    0.000   211    5    100.0   10 
10/18/18  7:20a   48.4   49.0   48.4    93   46.5   5.0   ESE   0.83  13.0    NE   46.3   48.8   46.7   44.0  30.182  0.00  0.00     0     0.00      0     0.0  0.00   0.0   0.115   0.000   73.0    46   51.0   72.2   8.59  .0742    0.000   213    5    100.0   10 
10/18/18  7:30a   48.1   48.5   48.1    93   46.2   5.0     E   0.83   9.0     E   46.0   48.4   46.3   43.6  30.183  0.00  0.00     0     0.00      0     0.0  0.00   0.0   0.117   0.000   73.0    46   51.0   72.2   8.59  .0742    0.000   213    5    100.0   10 
10/18/18  7:40a   47.7   48.0   47.7    93   45.8   6.0     E   1.00  14.0    NE   44.9   48.0   45.2   42.6  30.187  0.00  0.00     5     0.07      7     0.0  0.00   0.0   0.120   0.000   73.0    46   51.0   72.2   8.59  .0742    0.000   210    5    100.0   10 
10/18/18  7:50a   47.7   47.8   47.7    93   45.8   7.0     E   1.17  12.0     E   44.4   48.0   44.7   42.2  30.187  0.00  0.00    10     0.14     14     0.0  0.00   0.0   0.120   0.000   72.9    46   50.9   72.0   8.59  .0742    0.000   213    5    100.0   10 
10/18/18  8:00a   47.8   47.8   47.7    93   45.9   6.0   ESE   1.00  12.0   ESE   45.1   48.1   45.4   43.2  30.193  0.00  0.00    21     0.30     28     0.0  0.00   0.0   0.119   0.000   72.9    46   50.9   72.0   8.59  .0743    0.000   211    5    100.0   10 
10/18/18  8:10a   47.9   48.0   47.8    93   46.0   3.0   ESE   0.50   6.0   ESE   47.3   48.2   47.6   45.4  30.204  0.00  0.00    21     0.30     28     0.0  0.00   0.0   0.119   0.000   72.8    46   50.8   71.9   8.59  .0743    0.000   211    5    100.0   10 
10/18/18  8:20a   48.2   48.2   47.9    93   46.3   1.0   ESE   0.17   4.0   ESE   48.2   48.5   48.5   46.3  30.214  0.00  0.00    18     0.26     19     0.0  0.00   0.0   0.117   0.000   72.8    46   50.8   71.9   8.59  .0743    0.000   212    5    100.0   10 
10/18/18  8:30a   48.6   48.6   48.2    93   46.7   0.0   ESE   0.00   2.0   ESE   48.6   49.0   49.0   46.8  30.217  0.00  0.00    19     0.27     23     0.0  0.00   0.0   0.114   0.000   72.7    46   50.7   71.7   8.60  .0744    0.000   211    5    100.0   10 
10/18/18  8:40a   49.1   49.1   48.6    93   47.2   1.0     E   0.17   4.0     E   49.1   49.5   49.5   48.7  30.217  0.00  0.00    26     0.37     33     0.0  0.00   0.0   0.110   0.000   72.6    46   50.6   71.6   8.60  .0744    0.000   213    5    100.0   10 
10/18/18  8:50a   49.6   49.6   49.1    93   47.7   1.0     E   0.17   3.0     E   49.6   50.0   50.0   50.0  30.220  0.00  0.00    43     0.62     51     0.0  0.00   0.0   0.107   0.000   72.6    46   50.6   71.6   8.60  .0744    0.000   213    5    100.0   10 
10/18/18  9:00a   50.1   50.1   49.7    93   48.2   1.0   ESE   0.17   4.0     E   50.1   50.5   50.5   51.0  30.223  0.00  0.00    55     0.79     62     0.0  0.00   0.0   0.103   0.000   72.6    46   50.6   71.6   8.60  .0744    0.001   211    5    100.0   10 
10/18/18  9:10a   50.5   50.5   50.1    93   48.6   1.0   ESE   0.17   3.0   ENE   50.5   50.9   50.9   52.0  30.221  0.00  0.00    71     1.02     74     0.0  0.00   0.0   0.101   0.000   72.5    46   50.5   71.4   8.60  .0744    0.000   213    5    100.0   10 
10/18/18  9:20a   50.8   50.8   50.4    93   48.8   2.0     E   0.33   4.0   ENE   50.8   51.1   51.1   52.8  30.224  0.00  0.00    89     1.28    100     0.0  0.00   0.0   0.099   0.000   72.5    46   50.5   71.4   8.60  .0744    0.000   214    5    100.0   10 
10/18/18  9:30a   51.2   51.2   50.8    93   49.2   2.0   ENE   0.33   4.0     E   51.2   51.5   51.5   53.8  30.223  0.00  0.00   107     1.53    111     0.0  0.00   0.0   0.096   0.000   72.5    46   50.5   71.4   8.60  .0744    0.000   212    5    100.0   10 
10/18/18  9:40a   51.5   51.5   51.2    93   49.5   2.0   ENE   0.33   7.0     E   51.5   51.8   51.8   53.7  30.223  0.00  0.00    97     1.39    114     0.0  0.00   0.0   0.094   0.000   72.5    46   50.5   71.4   8.60  .0744    0.000   211    5    100.0   10 
10/18/18  9:50a   51.6   51.6   51.5    93   49.6   2.0     E   0.33   5.0     E   51.6   51.9   51.9   53.9  30.219  0.00  0.00   104     1.49    120     0.0  0.00   0.0   0.093   0.000   72.5    46   50.5   71.4   8.60  .0744    0.000   211    5    100.0   10 
10/18/18 10:00a   51.7   51.7   51.6    93   49.7   3.0   ENE   0.50   7.0     E   51.6   52.0   51.9   54.5  30.218  0.00  0.00   123     1.76    130     0.0  0.00   0.0   0.092   0.000   72.4    46   50.4   71.3   8.60  .0744    0.002   212    5    100.0   10 
10/18/18 10:10a   51.8   51.9   51.7    93   49.8   2.0     E   0.33   5.0    SE   51.8   52.1   52.1   57.9  30.215  0.00  0.00   226     3.24    336     0.0  0.00   0.0   0.092   0.000   72.4    46   50.4   71.3   8.60  .0744    0.000   213    5    100.0   10 
10/18/18 10:20a   52.4   52.4   51.8    93   50.4   3.0   ESE   0.50   7.0     E   52.3   52.6   52.5   61.8  30.213  0.00  0.00   421     6.04    568     0.0  0.00   0.0   0.087   0.000   72.4    46   50.4   71.3   8.60  .0744    0.000   213    5    100.0   10 
10/18/18 10:30a   53.7   53.7   52.4    93   51.7   3.0     E   0.50   7.0   ESE   53.7   53.9   53.9   65.5  30.214  0.00  0.00   519     7.44    575     0.0  0.00   0.0   0.078   0.000   72.4    46   50.4   71.3   8.60  .0744    0.000   211    5    100.0   10 
10/18/18 10:40a   54.6   54.6   53.7    92   52.3   2.0     E   0.33   6.0     E   54.6   54.7   54.7   64.5  30.217  0.00  0.00   431     6.18    561     0.0  0.00   0.0   0.072   0.000   72.4    46   50.4   71.3   8.60  .0744    0.000   210    5    100.0   10 
10/18/18 10:50a   54.4   54.6   54.2    90   51.5   3.0   NNE   0.50   5.0    NE   54.4   54.5   54.5   63.7  30.213  0.00  0.00   400     5.73    466     0.0  0.00   0.0   0.074   0.000   72.4    46   50.4   71.3   8.60  .0744    0.000   214    5    100.0   10 
10/18/18 11:00a   54.6   54.6   54.3    90   51.7   4.0     N   0.67   7.0     N   54.2   54.7   54.3   64.8  30.213  0.00  0.00   537     7.70    613     0.0  0.00   0.0   0.072   0.000   72.3    46   50.4   71.1   8.60  .0744    0.008   213    5    100.0   10 
10/18/18 11:10a   53.7   54.6   53.7    88   50.2   5.0     N   0.83   8.0     N   52.5   53.7   52.5   62.2  30.217  0.00  0.00   524     7.51    559     0.0  0.00   0.0   0.078   0.000   72.2    46   50.3   71.0   8.61  .0744    0.000   213    5    100.0   10 
10/18/18 11:20a   52.8   53.6   52.8    89   49.6   6.0     N   1.00   9.0     N   51.0   52.9   51.1   59.9  30.221  0.00  0.00   404     5.79    480     0.0  0.00   0.0   0.085   0.000   72.1    46   50.2   70.8   8.61  .0745    0.000   213    5    100.0   10 
10/18/18 11:30a   53.3   53.3   52.8    90   50.4   5.0     N   0.83   8.0   NNW   52.1   53.4   52.2   61.8  30.224  0.00  0.00   457     6.55    506     0.0  0.00   0.0   0.081   0.000   72.0    47   50.7   70.8   8.75  .0745    0.000   212    5    100.0   10 
10/18/18 11:40a   53.1   53.3   53.1    89   49.9   5.0     N   0.83   8.0     N   51.8   53.2   51.9   59.7  30.225  0.00  0.00   367     5.26    454     0.0  0.00   0.0   0.083   0.000   72.0    47   50.7   70.8   8.75  .0745    0.000   211    5    100.0   10 
10/18/18 11:50a   53.3   53.3   53.0    89   50.1   4.0     N   0.67   7.0     N   52.7   53.4   52.8   59.4  30.224  0.00  0.00   315     4.52    362     0.0  0.00   0.0   0.081   0.000   71.9    47   50.6   70.6   8.75  .0745    0.000   213    5    100.0   10 
10/18/18 12:00p   53.6   53.6   53.3    89   50.4   4.0     N   0.67   7.0   NNE   53.0   53.7   53.1   60.7  30.223  0.00  0.00   367     5.26    418     0.0  0.00   0.0   0.079   0.000   71.8    47   50.5   70.5   8.75  .0745    0.008   212    5    100.0   10 
10/18/18 12:10p   54.0   54.0   53.5    89   50.8   4.0     N   0.67   8.0     N   53.5   54.1   53.6   60.8  30.224  0.00  0.00   352     5.05    373     0.0  0.00   0.0   0.076   0.000   71.8    47   50.5   70.5   8.75  .0745    0.000   212    5    100.0   10 
10/18/18 12:20p   54.0   54.0   53.9    88   50.5   4.0     N   0.67   8.0     N   53.5   54.0   53.5   61.2  30.220  0.00  0.00   376     5.39    418     0.0  0.00   0.0   0.076   0.000   71.7    47   50.4   70.3   8.75  .0745    0.000   213    5    100.0   10 
10/18/18 12:30p   54.7   54.7   54.0    88   51.2   5.0   NNE   0.83   8.0     N   53.7   54.7   53.7   63.2  30.220  0.00  0.00   484     6.94    559     0.0  0.00   0.0   0.072   0.000   71.6    47   50.3   70.2   8.75  .0745    0.000   212    5    100.0   10 
10/18/18 12:40p   55.0   55.1   54.7    87   51.2   4.0   NNE   0.67   7.0   NNE   54.6   55.0   54.6   64.8  30.216  0.00  0.00   543     7.78    608     0.0  0.00   0.0   0.069   0.000   71.6    47   50.3   70.2   8.75  .0745    0.000   212    5    100.0   10 
10/18/18 12:50p   54.9   55.1   54.8    87   51.1   4.0     N   0.67   7.0   NNE   54.5   54.9   54.5   64.8  30.212  0.00  0.00   551     7.90    635     0.0  0.00   0.0   0.070   0.000   71.5    47   50.2   70.0   8.75  .0745    0.000   213    5    100.0   10 
10/18/18  1:00p   54.9   55.0   54.7    87   51.1   4.0   NNE   0.67   7.0     N   54.5   54.9   54.5   64.4  30.212  0.00  0.00   523     7.50    642     0.0  0.00   0.0   0.070   0.000   71.4    47   50.1   69.9   8.75  .0745    0.009   212    5    100.0   10 
10/18/18  1:10p   54.5   54.9   54.4    86   50.4   4.0     N   0.67   7.0   NNE   54.1   54.4   54.0   62.0  30.214  0.00  0.00   405     5.81    452     0.0  0.00   0.0   0.073   0.000   71.4    47   50.1   69.9   8.75  .0746    0.000   213    5    100.0   10 
10/18/18  1:20p   54.1   54.5   54.1    87   50.3   4.0     N   0.67   8.0     N   53.6   54.1   53.6   60.8  30.217  0.00  0.00   362     5.19    401     0.0  0.00   0.0   0.076   0.000   71.3    47   50.0   69.8   8.75  .0746    0.000   214    5    100.0   10 
10/18/18  1:30p   53.7   54.1   53.7    87   49.9   4.0     N   0.67   8.0   NNE   53.1   53.7   53.1   58.0  30.216  0.00  0.00   265     3.80    294     0.0  0.00   0.0   0.078   0.000   71.2    47   49.9   69.6   8.75  .0746    0.000   212    5    100.0   10 
10/18/18  1:40p   53.2   53.6   53.2    87   49.4   5.0     N   0.83   8.0     N   51.9   53.2   51.9   55.9  30.214  0.00  0.00   225     3.23    230     0.0  0.00   0.0   0.082   0.000   71.2    47   49.9   69.6   8.75  .0746    0.000   214    5    100.0   10 
10/18/18  1:50p   53.5   53.5   53.0    87   49.7   5.0     N   0.83   9.0    NE   52.3   53.5   52.3   56.0  30.213  0.00  0.00   212     3.04    223     0.0  0.00   0.0   0.080   0.000   71.1    47   49.8   69.4   8.75  .0746    0.000   213    5    100.0   10 
10/18/18  2:00p   54.0   54.1   53.4    87   50.2   5.0    NE   0.83   9.0   ENE   52.9   54.0   52.9   57.2  30.211  0.00  0.00   232     3.33    237     0.0  0.00   0.0   0.076   0.000   71.0    48   50.3   69.4   8.87  .0746    0.006   212    5    100.0   10 
10/18/18  2:10p   54.2   54.2   53.8    87   50.4   6.0    NE   1.00  10.0    NE   52.6   54.2   52.6   56.4  30.213  0.00  0.00   213     3.05    223     0.0  0.00   0.0   0.075   0.000   71.0    48   50.3   69.4   8.87  .0746    0.000   212    5    100.0   10 
10/18/18  2:20p   54.1   54.3   54.1    86   50.0   6.0    NE   1.00  10.0    NE   52.5   54.0   52.4   55.9  30.212  0.00  0.00   199     2.85    206     0.0  0.00   0.0   0.076   0.000   71.0    48   50.3   69.4   8.87  .0746    0.000   213    5    100.0   10 
10/18/18  2:30p   54.1   54.1   54.0    86   50.0   6.0    NE   1.00  10.0    NE   52.5   54.0   52.4   55.7  30.211  0.00  0.00   189     2.71    195     0.0  0.00   0.0   0.076   0.000   70.9    48   50.2   69.3   8.87  .0746    0.000   213    5    100.0   10 
10/18/18  2:40p   54.1   54.1   54.0    86   50.0   6.0    NE   1.00  10.0   NNE   52.5   54.0   52.4   55.9  30.211  0.00  0.00   194     2.78    200     0.0  0.00   0.0   0.076   0.000   70.9    48   50.2   69.3   8.87  .0746    0.000   214    5    100.0   10 
10/18/18  2:50p   54.2   54.2   54.1    86   50.1   6.0    NE   1.00  11.0   NNE   52.6   54.1   52.5   55.7  30.211  0.00  0.00   183     2.62    186     0.0  0.00   0.0   0.075   0.000   70.8    48   50.1   69.1   8.87  .0746    0.000   209    5    100.0   10 
10/18/18  3:00p   54.0   54.2   54.0    86   49.9   8.0    NE   1.33  12.0    NE   51.3   53.9   51.2   54.1  30.211  0.00  0.00   178     2.55    183     0.0  0.00   0.0   0.076   0.000   70.7    48   50.0   69.0   8.86  .0746    0.004   211    5    100.0   10 
10/18/18  3:10p   53.7   53.9   53.7    86   49.6   8.0    NE   1.33  12.0   NNE   50.9   53.6   50.8   53.9  30.211  0.00  0.00   180     2.58    185     0.0  0.00   0.0   0.078   0.000   70.7    48   50.0   69.0   8.86  .0746    0.000   213    5    100.0   10 
10/18/18  3:20p   53.7   53.8   53.7    86   49.6   8.0    NE   1.33  11.0   NNE   50.9   53.6   50.8   53.6  30.214  0.00  0.00   169     2.42    179     0.0  0.00   0.0   0.078   0.000   70.7    48   50.0   69.0   8.86  .0747    0.000   212    5    100.0   10 
10/18/18  3:30p   53.7   53.8   53.7    86   49.6   7.0    NE   1.17  13.0    NE   51.6   53.6   51.5   54.0  30.219  0.00  0.00   149     2.14    167     0.0  0.00   0.0   0.078   0.000   70.6    48   50.0   68.9   8.86  .0747    0.000   212    5    100.0   10 
10/18/18  3:40p   53.6   53.7   53.6    86   49.5   6.0    NE   1.00  11.0    NE   51.9   53.5   51.8   53.7  30.219  0.00  0.00   124     1.78    127     0.0  0.00   0.0   0.079   0.000   70.5    48   49.9   68.8   8.86  .0747    0.000   213    5    100.0   10 
10/18/18  3:50p   53.6   53.6   53.6    86   49.5   6.0   ENE   1.00  12.0   ENE   51.9   53.5   51.8   53.4  30.217  0.00  0.00   114     1.63    125     0.0  0.00   0.0   0.079   0.000   70.3    48   49.7   68.5   8.86  .0747    0.000   211    5    100.0   10 
10/18/18  4:00p   53.7   53.7   53.5    86   49.6   6.0    NE   1.00  11.0   NNE   52.0   53.6   51.9   53.2  30.217  0.00  0.00   101     1.45    105     0.0  0.00   0.0   0.078   0.000   70.2    48   49.6   68.4   8.85  .0747    0.003   213    5    100.0   10 
10/18/18  4:10p   53.6   53.7   53.6    86   49.5   6.0    NE   1.00  14.0    NE   51.9   53.5   51.8   52.6  30.218  0.00  0.00    85     1.22     90     0.0  0.00   0.0   0.079   0.000   70.1    48   49.5   68.2   8.85  .0748    0.000   211    5    100.0   10 
10/18/18  4:20p   53.6   53.7   53.6    86   49.5   6.0    NE   1.00  13.0   NNE   51.9   53.5   51.8   52.7  30.216  0.00  0.00    84     1.20     90     0.0  0.00   0.0   0.079   0.000   70.0    48   49.4   68.1   8.85  .0748    0.000   212    5    100.0   10 
10/18/18  4:30p   53.6   53.6   53.5    86   49.5   5.0    NE   0.83  10.0    NE   52.4   53.5   52.3   53.2  30.214  0.00  0.00    82     1.18     90     0.0  0.00   0.0   0.079   0.000   69.9    48   49.3   68.0   8.85  .0748    0.000   211    5    100.0   10 
10/18/18  4:40p   53.6   53.8   53.6    86   49.5   6.0    NE   1.00  15.0    NE   51.9   53.5   51.8   52.2  30.213  0.00  0.00    67     0.96     76     0.0  0.00   0.0   0.079   0.000   69.9    48   49.3   68.0   8.85  .0748    0.000   212    5    100.0   10 
10/18/18  4:50p   53.5   53.7   53.5    86   49.4   7.0    NE   1.17  13.0    NE   51.4   53.4   51.3   51.3  30.209  0.00  0.00    55     0.79     60     0.0  0.00   0.0   0.080   0.000   69.8    48   49.2   68.0   8.85  .0748    0.000   209    5    100.0   10 
10/18/18  5:00p   53.6   53.6   53.5    86   49.5   6.0   ENE   1.00  11.0     N   51.9   53.5   51.8   52.0  30.206  0.00  0.00    58     0.83     60     0.0  0.00   0.0   0.079   0.000   69.7    49   49.7   68.0   9.06  .0748    0.002   211    5    100.0   10 
10/18/18  5:10p   53.7   53.7   53.6    86   49.6   5.0   ENE   0.83  10.0    NE   52.5   53.6   52.4   52.6  30.207  0.00  0.00    56     0.80     58     0.0  0.00   0.0   0.078   0.000   69.7    49   49.7   68.0   9.06  .0748    0.000   212    5    100.0   10 
10/18/18  5:20p   53.7   53.8   53.7    86   49.6   6.0    NE   1.00  11.0     E   52.0   53.6   51.9   51.9  30.204  0.00  0.00    49     0.70     51     0.0  0.00   0.0   0.078   0.000   69.7    49   49.7   68.0   9.06  .0748    0.000   211    5    100.0   10 
10/18/18  5:30p   53.6   53.7   53.6    86   49.5   6.0    NE   1.00  12.0    NE   51.9   53.5   51.8   51.6  30.203  0.00  0.00    43     0.62     46     0.0  0.00   0.0   0.079   0.000   69.7    49   49.7   68.0   9.06  .0748    0.000   212    5    100.0   10 
10/18/18  5:40p   53.5   53.6   53.5    86   49.4   6.0    NE   1.00  12.0    NE   51.8   53.4   51.7   51.1  30.203  0.00  0.00    33     0.47     39     0.0  0.00   0.0   0.080   0.000   69.7    49   49.7   68.0   9.06  .0748    0.000   212    5    100.0   10 
10/18/18  5:50p   53.5   53.6   53.5    86   49.4   5.0   ENE   0.83  14.0   ENE   52.3   53.4   52.2   51.2  30.204  0.00  0.00    23     0.33     28     0.0  0.00   0.0   0.080   0.000   69.6    49   49.6   67.9   9.06  .0748    0.000   211    5    100.0   10 
10/18/18  6:00p   53.3   53.5   53.3    86   49.2   6.0   ENE   1.00  12.0   ENE   51.6   53.2   51.5   50.3  30.203  0.00  0.00    19     0.27     23     0.0  0.00   0.0   0.081   0.000   69.6    49   49.6   67.9   9.06  .0748    0.001   209    5    100.0   10 
10/18/18  6:10p   53.4   53.4   53.3    86   49.3   4.0   ENE   0.67  10.0   ENE   52.8   53.3   52.7   51.1  30.202  0.00  0.00    11     0.16     16     0.0  0.00   0.0   0.081   0.000   69.7    49   49.7   68.0   9.06  .0748    0.000   213    5    100.0   10 
10/18/18  6:20p   53.3   53.4   53.3    86   49.2   5.0   ENE   0.83   9.0   ENE   52.1   53.2   52.0   49.7  30.204  0.00  0.00     8     0.11     11     0.0  0.00   0.0   0.081   0.000   69.8    49   49.8   68.1   9.05  .0748    0.000   213    5    100.0   10 
10/18/18  6:30p   53.0   53.3   53.0    86   48.9   5.0   ENE   0.83  10.0   ENE   51.7   52.9   51.6   49.2  30.202  0.00  0.00     3     0.04      7     0.0  0.00   0.0   0.083   0.000   69.8    49   49.8   68.1   9.05  .0748    0.000   212    5    100.0   10 
10/18/18  6:40p   52.7   53.1   52.7    86   48.6   5.0   ENE   0.83  10.0   ENE   51.4   52.7   51.4   48.9  30.201  0.00  0.00     0     0.00      0     0.0  0.00   0.0   0.085   0.000   69.9    49   49.9   68.1   9.05  .0747    0.000   212    5    100.0   10 
10/18/18  6:50p   52.4   52.7   52.4    86   48.3   4.0   ENE   0.67   8.0     E   51.6   52.4   51.6   49.1  30.201  0.00  0.00     0     0.00      0     0.0  0.00   0.0   0.087   0.000   69.9    49   49.9   68.1   9.05  .0747    0.000   212    5    100.0   10 
10/18/18  7:00p   52.1   52.4   52.1    86   48.0   3.0   ENE   0.50   6.0     E   52.0   52.1   52.0   49.5  30.203  0.00  0.00     0     0.00      0     0.0  0.00   0.0   0.090   0.000   70.0    49   50.0   68.2   9.05  .0747    0.001   212    5    100.0   10 
10/18/18  7:10p   51.7   52.0   51.6    86   47.6   3.0   ENE   0.50   5.0    NE   51.6   51.7   51.6   49.0  30.200  0.00  0.00     0     0.00      0     0.0  0.00   0.0   0.092   0.000   70.0    49   50.0   68.2   9.05  .0747    0.000   212    5    100.0   10 
10/18/18  7:20p   51.3   51.6   51.3    86   47.3   2.0   ENE   0.33   4.0   ENE   51.3   51.3   51.3   48.7  30.202  0.00  0.00     0     0.00      0     0.0  0.00   0.0   0.095   0.000   70.0    49   50.0   68.2   9.05  .0747    0.000   213    5    100.0   10 
10/18/18  7:30p   50.9   51.3   50.9    86   46.9   1.0   ENE   0.17   2.0   ENE   50.9   51.0   51.0   48.4  30.201  0.00  0.00     0     0.00      0     0.0  0.00   0.0   0.098   0.000   70.0    49   50.0   68.2   9.05  .0747    0.000   208    5    100.0   10 
10/18/18  7:40p   50.9   50.9   50.8    87   47.2   0.0   ENE   0.00   2.0   ENE   50.9   51.0   51.0   48.4  30.203  0.00  0.00     0     0.00      0     0.0  0.00   0.0   0.098   0.000   70.1    49   50.0   68.3   9.05  .0747    0.000   211    5    100.0   10 
10/18/18  7:50p   50.5   50.9   50.5    87   46.8   1.0   ENE   0.17   2.0   ENE   50.5   50.6   50.6   48.0  30.203  0.00  0.00     0     0.00      0     0.0  0.00   0.0   0.101   0.000   70.1    49   50.0   68.3   9.05  .0747    0.000   209    5    100.0   10 
10/18/18  8:00p   49.9   50.5   49.9    87   46.2   1.0   ENE   0.17   2.0   ENE   49.9   50.1   50.1   47.5  30.201  0.00  0.00     0     0.00      0     0.0  0.00   0.0   0.105   0.000   70.2    49   50.1   68.5   9.05  .0747    0.000   211    5    100.0   10 
10/18/18  8:10p   49.5   49.9   49.5    87   45.8   2.0   ENE   0.33   3.0   ENE   49.5   49.7   49.7   47.1  30.200  0.00  0.00     0     0.00      0     0.0  0.00   0.0   0.108   0.000   70.3    49   50.2   68.6   9.05  .0747    0.000   213    5    100.0   10 
10/18/18  8:20p   49.2   49.5   49.2    87   45.5   1.0   ENE   0.17   3.0   ENE   49.2   49.4   49.4   46.8  30.198  0.00  0.00     0     0.00      0     0.0  0.00   0.0   0.110   0.000   70.4    49   50.3   68.7   9.05  .0746    0.000   212    5    100.0   10 
10/18/18  8:30p   49.0   49.2   48.9    87   45.3   1.0   ENE   0.17   3.0   ENE   49.0   49.2   49.2   46.6  30.199  0.00  0.00     0     0.00      0     0.0  0.00   0.0   0.111   0.000   70.4    49   50.3   68.7   9.05  .0746    0.000   209    5    100.0   10 
10/18/18  8:40p   48.6   49.0   48.6    88   45.2   1.0   ENE   0.17   3.0   ENE   48.6   48.8   48.8   46.2  30.198  0.00  0.00     0     0.00      0     0.0  0.00   0.0   0.114   0.000   70.4    49   50.3   68.7   9.05  .0746    0.000   214    5    100.0   10 
10/18/18  8:50p   48.6   48.7   48.6    88   45.2   2.0   ENE   0.33   3.0   ENE   48.6   48.8   48.8   46.2  30.198  0.00  0.00     0     0.00      0     0.0  0.00   0.0   0.114   0.000   70.5    49   50.4   68.9   9.05  .0746    0.000   210    5    100.0   10 
10/18/18  9:00p   48.5   48.6   48.5    88   45.1   2.0   ENE   0.33   3.0   ENE   48.5   48.7   48.7   46.1  30.198  0.00  0.00     0     0.00      0     0.0  0.00   0.0   0.115   0.000   70.5    49   50.4   68.9   9.05  .0746    0.000   212    5    100.0   10 
10/18/18  9:10p   48.7   48.8   48.5    89   45.6   1.0   ENE   0.17   3.0   ENE   48.7   48.9   48.9   46.3  30.198  0.00  0.00     0     0.00      0     0.0  0.00   0.0   0.113   0.000   70.5    49   50.4   68.9   9.05  .0746    0.000   212    5    100.0   10 
10/18/18  9:20p   48.8   48.8   48.7    89   45.7   0.0   ENE   0.00   1.0   ENE   48.8   49.0   49.0   46.4  30.198  0.00  0.00     0     0.00      0     0.0  0.00   0.0   0.113   0.000   70.5    49   50.4   68.9   9.05  .0746    0.000   211    5    100.0   10 
10/18/18  9:30p   48.8   48.8   48.8    89   45.7   0.0   ---   0.00   0.0   ---   48.8   49.0   49.0   46.4  30.199  0.00  0.00     0     0.00      0     0.0  0.00   0.0   0.113   0.000   70.4    49   50.3   68.7   9.05  .0746    0.000   213    5    100.0   10 
10/18/18  9:40p   49.0   49.0   48.8    89   45.9   0.0   ENE   0.00   1.0   ENE   49.0   49.3   49.3   46.7  30.202  0.00  0.00     0     0.00      0     0.0  0.00   0.0   0.111   0.000   70.4    49   50.3   68.7   9.05  .0747    0.000   213    5    100.0   10 
10/18/18  9:50p   49.1   49.1   48.9    89   46.0   0.0   ENE   0.00   1.0   ENE   49.1   49.4   49.4   46.8  30.204  0.00  0.00     0     0.00      0     0.0  0.00   0.0   0.110   0.000   70.5    49   50.4   68.9   9.05  .0746    0.000   208    5    100.0   10 
10/18/18 10:00p   49.0   49.2   48.9    89   45.9   0.0   ENE   0.00   2.0   ENE   49.0   49.3   49.3   46.7  30.204  0.00  0.00     0     0.00      0     0.0  0.00   0.0   0.111   0.000   70.4    49   50.3   68.7   9.05  .0747    0.000   212    5    100.0   10 
10/18/18 10:10p   49.0   49.1   48.9    89   45.9   0.0   ENE   0.00   1.0   ENE   49.0   49.3   49.3   46.7  30.205  0.00  0.00     0     0.00      0     0.0  0.00   0.0   0.111   0.000   70.4    48   49.8   68.6   8.86  .0747    0.000   213    5    100.0   10 
10/18/18 10:20p   48.8   49.0   48.8    90   46.0   0.0     E   0.00   2.0   ENE   48.8   49.1   49.1   46.5  30.207  0.00  0.00     0     0.00      0     0.0  0.00   0.0   0.113   0.000   70.4    48   49.8   68.6   8.86  .0747    0.000   212    5    100.0   10 
10/18/18 10:30p   48.8   48.8   48.7    90   46.0   0.0     E   0.00   2.0     E   48.8   49.1   49.1   46.5  30.210  0.00  0.00     0     0.00      0     0.0  0.00   0.0   0.113   0.000   70.4    48   49.8   68.6   8.86  .0747    0.000   212    5    100.0   10 
10/18/18 10:40p   48.5   48.8   48.5    89   45.4   0.0     E   0.00   1.0     E   48.5   48.7   48.7   46.1  30.207  0.00  0.00     0     0.00      0     0.0  0.00   0.0   0.115   0.000   70.4    48   49.8   68.6   8.86  .0747    0.000   212    5    100.0   10 
10/18/18 10:50p   48.5   48.6   48.4    90   45.7   0.0     E   0.00   2.0     E   48.5   48.8   48.8   46.2  30.210  0.00  0.00     0     0.00      0     0.0  0.00   0.0   0.115   0.000   70.4    48   49.8   68.6   8.86  .0747    0.000   212    5    100.0   10 
10/18/18 11:00p   48.5   48.5   48.4    90   45.7   0.0     E   0.00   2.0     E   48.5   48.8   48.8   46.2  30.212  0.00  0.00     0     0.00      0     0.0  0.00   0.0   0.115   0.000   70.4    48   49.8   68.6   8.86  .0747    0.000   213    5    100.0   10 
10/18/18 11:10p   48.3   48.5   48.3    90   45.5   0.0     E   0.00   2.0     E   48.3   48.5   48.5   45.9  30.210  0.00  0.00     0     0.00      0     0.0  0.00   0.0   0.116   0.000   70.3    48   49.7   68.5   8.86  .0747    0.000   211    5    100.0   10 
10/18/18 11:20p   48.6   48.6   48.3    90   45.8   0.0     E   0.00   2.0     E   48.6   48.9   48.9   46.3  30.212  0.00  0.00     0     0.00      0     0.0  0.00   0.0   0.114   0.000   70.3    48   49.7   68.5   8.86  .0747    0.000   211    5    100.0   10 
10/18/18 11:30p   48.4   48.7   48.4    90   45.6   1.0     E   0.17   3.0     E   48.4   48.6   48.6   46.0  30.213  0.00  0.00     0     0.00      0     0.0  0.00   0.0   0.115   0.000   70.3    48   49.7   68.5   8.86  .0747    0.000   211    5    100.0   10 
10/18/18 11:40p   47.9   48.4   47.9    89   44.8   1.0     E   0.17   2.0     E   47.9   48.1   48.1   45.4  30.212  0.00  0.00     0     0.00      0     0.0  0.00   0.0   0.119   0.000   70.3    48   49.7   68.5   8.86  .0747    0.000   212    5    100.0   10 
10/18/18 11:50p   47.1   47.8   47.1    89   44.0   0.0     E   0.00   2.0     E   47.1   47.3   47.3   44.6  30.213  0.00  0.00     0     0.00      0     0.0  0.00   0.0   0.124   0.000   70.3    48   49.7   68.5   8.86  .0747    0.000   211    5    100.0   10 
10/19/18 12:00a   46.3   47.0   46.3    89   43.2   1.0     E   0.17   2.0     E   46.3   46.4   46.4   43.7  30.212  0.00  0.00     0     0.00      0     0.0  0.00   0.0   0.130   0.000   70.2    48   49.6   68.4   8.85  .0747    0.000   212    5    100.0   10 
10/19/18 12:10a   46.4   46.4   46.3    90   43.6   0.0     E   0.00   1.0     E   46.4   46.5   46.5   43.8  30.212  0.00  0.00     0     0.00      0     0.0  0.00   0.0   0.129   0.000   70.2    48   49.6   68.4   8.85  .0747    0.000   212    5    100.0   10 
10/19/18 12:20a   45.8   46.4   45.8    90   43.0   1.0     E   0.17   3.0     E   45.8   45.9   45.9   43.2  30.213  0.00  0.00     0     0.00      0     0.0  0.00   0.0   0.133   0.000   70.1    48   49.5   68.2   8.85  .0748    0.000   210    5    100.0   10 
10/19/18 12:30a   45.5   45.8   45.4    90   42.7   1.0     E   0.17   2.0     E   45.5   45.6   45.6   42.9  30.212  0.00  0.00     0     0.00      0     0.0  0.00   0.0   0.135   0.000   70.1    48   49.5   68.2   8.85  .0747    0.000   211    5    100.0   10 
10/19/18 12:40a   46.0   46.0   45.6    91   43.5   1.0     E   0.17   2.0     E   46.0   46.1   46.1   43.4  30.213  0.00  0.00     0     0.00      0     0.0  0.00   0.0   0.132   0.000   70.0    48   49.4   68.1   8.85  .0748    0.000   210    5    100.0   10 
10/19/18 12:50a   45.8   46.1   45.8    90   43.0   1.0     E   0.17   2.0     E   45.8   45.9   45.9   43.2  30.211  0.00  0.00     0     0.00      0     0.0  0.00   0.0   0.133   0.000   70.0    48   49.4   68.1   8.85  .0748    0.000   212    5    100.0   10 
10/19/18  1:00a   45.7   45.9   45.6    90   42.9   0.0     E   0.00   2.0     E   45.7   45.8   45.8   43.1  30.216  0.00  0.00     0     0.00      0     0.0  0.00   0.0   0.134   0.000   70.0    48   49.4   68.1   8.85  .0748    0.000   211    5    100.0   10 
10/19/18  1:10a   46.0   46.0   45.6    91   43.5   0.0     E   0.00   1.0     E   46.0   46.1   46.1   43.4  30.217  0.00  0.00     0     0.00      0     0.0  0.00   0.0   0.132   0.000   69.9    48   49.3   68.0   8.85  .0748    0.000   212    5    100.0   10 
10/19/18  1:20a   46.0   46.0   45.9    91   43.5   1.0     E   0.17   2.0     E   46.0   46.1   46.1   43.4  30.220  0.00  0.00     0     0.00      0     0.0  0.00   0.0   0.132   0.000   69.9    48   49.3   68.0   8.85  .0748    0.000   213    5    100.0   10 
10/19/18  1:30a   45.6   46.0   45.6    90   42.8   1.0     E   0.17   2.0     E   45.6   45.7   45.7   43.0  30.220  0.00  0.00     0     0.00      0     0.0  0.00   0.0   0.135   0.000   69.9    48   49.3   68.0   8.85  .0748    0.000   212    5    100.0   10 
10/19/18  1:40a   46.0   46.0   45.6    91   43.5   0.0     E   0.00   1.0     E   46.0   46.1   46.1   43.4  30.221  0.00  0.00     0     0.00      0     0.0  0.00   0.0   0.132   0.000   69.8    48   49.2   68.0   8.85  .0748    0.000   208    5    100.0   10 
10/19/18  1:50a   46.8   46.8   46.0    91   44.3   0.0     E   0.00   1.0     E   46.8   47.0   47.0   44.3  30.222  0.00  0.00     0     0.00      0     0.0  0.00   0.0   0.126   0.000   69.8    48   49.2   68.0   8.85  .0748    0.000   212    5    100.0   10 
10/19/18  2:00a   46.7   46.8   46.7    91   44.2   0.0     E   0.00   1.0     E   46.7   46.9   46.9   44.2  30.224  0.00  0.00     0     0.00      0     0.0  0.00   0.0   0.127   0.000   69.7    48   49.1   67.9   8.86  .0748    0.000   210    5    100.0   10 
10/19/18  2:10a   46.4   46.7   46.4    91   43.9   0.0     E   0.00   2.0     E   46.4   46.6   46.6   43.9  30.223  0.00  0.00     0     0.00      0     0.0  0.00   0.0   0.129   0.000   69.7    48   49.1   67.9   8.86  .0748    0.000   211    5    100.0   10 
10/19/18  2:20a   45.9   46.4   45.8    91   43.4   1.0     E   0.17   2.0     E   45.9   46.0   46.0   43.3  30.226  0.00  0.00     0     0.00      0     0.0  0.00   0.0   0.133   0.000   69.6    48   49.0   67.8   8.86  .0749    0.000   211    5    100.0   10 
10/19/18  2:30a   45.9   45.9   45.8    91   43.4   0.0     E   0.00   2.0     E   45.9   46.0   46.0   43.3  30.227  0.00  0.00     0     0.00      0     0.0  0.00   0.0   0.133   0.000   69.6    48   49.0   67.8   8.86  .0749    0.000   213    5    100.0   10 
10/19/18  2:40a   46.0   46.1   45.8    91   43.5   0.0     E   0.00   2.0     E   46.0   46.1   46.1   43.4  30.227  0.00  0.00     0     0.00      0     0.0  0.00   0.0   0.132   0.000   69.5    48   48.9   67.8   8.86  .0749    0.000   211    5    100.0   10 
10/19/18  2:50a   45.7   46.0   45.7    91   43.2   0.0     E   0.00   2.0     E   45.7   45.8   45.8   43.1  30.227  0.00  0.00     0     0.00      0     0.0  0.00   0.0   0.134   0.000   69.4    48   48.9   67.7   8.86  .0749    0.000   213    5    100.0   10 
10/19/18  3:00a   45.2   45.6   45.2    91   42.7   0.0   ---   0.00   0.0   ---   45.2   45.3   45.3   42.6  30.228  0.00  0.00     0     0.00      0     0.0  0.00   0.0   0.137   0.000   69.4    48   48.9   67.7   8.86  .0749    0.000   214    5    100.0   10 
10/19/18  3:10a   45.2   45.2   44.9    92   43.0   0.0   ---   0.00   0.0   ---   45.2   45.3   45.3   42.6  30.226  0.00  0.00     0     0.00      0     0.0  0.00   0.0   0.137   0.000   69.4    48   48.9   67.7   8.86  .0749    0.000   212    5    100.0   10 
10/19/18  3:20a   45.2   45.2   45.0    92   43.0   1.0     E   0.17   2.0     E   45.2   45.3   45.3   42.6  30.225  0.00  0.00     0     0.00      0     0.0  0.00   0.0   0.137   0.000   69.3    48   48.8   67.6   8.86  .0749    0.000   211    5    100.0   10 
10/19/18  3:30a   45.0   45.4   45.0    91   42.5   1.0     E   0.17   3.0     E   45.0   45.1   45.1   42.4  30.225  0.00  0.00     0     0.00      0     0.0  0.00   0.0   0.139   0.000   69.2    48   48.7   67.5   8.87  .0749    0.000   213    5    100.0   10 
10/19/18  3:40a   45.6   45.6   45.0    92   43.4   1.0     E   0.17   2.0     E   45.6   45.8   45.8   43.1  30.222  0.00  0.00     0     0.00      0     0.0  0.00   0.0   0.135   0.000   69.2    48   48.7   67.5   8.87  .0749    0.000   211    5    100.0   10 
10/19/18  3:50a   46.1   46.1   45.6    92   43.9   0.0     E   0.00   2.0     E   46.1   46.3   46.3   43.6  30.224  0.00  0.00     0     0.00      0     0.0  0.00   0.0   0.131   0.000   69.1    47   48.0   67.4   8.77  .0750    0.000   211    5    100.0   10 
10/19/18  4:00a   46.7   46.7   46.1    92   44.5   0.0     E   0.00   1.0     E   46.7   46.9   46.9   44.2  30.225  0.00  0.00     0     0.00      0     0.0  0.00   0.0   0.127   0.000   69.0    47   47.9   67.3   8.77  .0750    0.000   212    5    100.0   10 
10/19/18  4:10a   47.7   47.7   46.8    92   45.5   1.0     S   0.17   2.0     E   47.7   48.0   48.0   45.4  30.225  0.00  0.00     0     0.00      0     0.0  0.00   0.0   0.120   0.000   69.0    47   47.9   67.3   8.77  .0750    0.000   212    5    100.0   10 
10/19/18  4:20a   48.2   48.2   47.7    92   46.0   1.0    NE   0.17   5.0    NE   48.2   48.5   48.5   45.9  30.225  0.00  0.00     0     0.00      0     0.0  0.00   0.0   0.117   0.000   69.0    47   47.9   67.3   8.77  .0750    0.000   212    5    100.0   10 
10/19/18  4:30a   48.0   48.2   48.0    92   45.8   0.0   ENE   0.00   2.0   ENE   48.0   48.3   48.3   45.7  30.225  0.00  0.00     0     0.00      0     0.0  0.00   0.0   0.118   0.000   68.9    47   47.8   67.2   8.77  .0750    0.000   213    5    100.0   10 
10/19/18  4:40a   48.0   48.1   48.0    92   45.8   1.0   ENE   0.17   4.0   ENE   48.0   48.3   48.3   45.7  30.227  0.00  0.00     0     0.00      0     0.0  0.00   0.0   0.118   0.000   68.8    47   47.7   67.1   8.77  .0750    0.000   210    5    100.0   10 
10/19/18  4:50a   47.6   47.9   47.6    92   45.4   1.0     E   0.17   4.0   ENE   47.6   47.9   47.9   45.3  30.231  0.00  0.00     0     0.00      0     0.0  0.00   0.0   0.121   0.000   68.8    47   47.7   67.1   8.77  .0750    0.000   212    5    100.0   10 
10/19/18  5:00a   49.4   49.4   47.6    93   47.5   3.0   ENE   0.50   8.0   ENE   49.0   49.8   49.4   46.8  30.232  0.00  0.00     0     0.00      0     0.0  0.00   0.0   0.108   0.000   68.8    47   47.7   67.1   8.77  .0750    0.000   213    5    100.0   10 
10/19/18  5:10a   49.9   49.9   49.4    93   48.0   3.0   ENE   0.50   9.0     E   49.6   50.3   50.0   47.4  30.235  0.00  0.00     0     0.00      0     0.0  0.00   0.0   0.105   0.000   68.7    47   47.6   67.0   8.78  .0751    0.000   211    5    100.0   10 
10/19/18  5:20a   49.7   49.9   49.7    92   47.5   1.0   ENE   0.17   3.0   ENE   49.7   50.1   50.1   47.5  30.235  0.00  0.00     0     0.00      0     0.0  0.00   0.0   0.106   0.000   68.6    47   47.6   66.9   8.78  .0751    0.000   213    5    100.0   10 
10/19/18  5:30a   48.7   49.7   48.7    91   46.2   0.0   ENE   0.00   1.0   ENE   48.7   49.0   49.0   46.4  30.240  0.00  0.00     0     0.00      0     0.0  0.00   0.0   0.113   0.000   68.6    47   47.6   66.9   8.78  .0751    0.000   207    5    100.0   10 
10/19/18  5:40a   47.9   48.7   47.9    91   45.4   1.0    NE   0.17   4.0    NE   47.9   48.1   48.1   45.5  30.242  0.00  0.00     0     0.00      0     0.0  0.00   0.0   0.119   0.000   68.6    47   47.6   66.9   8.78  .0751    0.000   212    5    100.0   10 
10/19/18  5:50a   48.0   48.1   47.9    92   45.8   1.0   NNE   0.17   4.0     W   48.0   48.3   48.3   45.7  30.244  0.00  0.00     0     0.00      0     0.0  0.00   0.0   0.118   0.000   68.5    47   47.5   66.8   8.78  .0751    0.000   213    5    100.0   10 
10/19/18  6:00a   48.3   48.3   48.0    92   46.1   2.0   ENE   0.33   5.0     E   48.3   48.6   48.6   46.0  30.247  0.00  0.00     0     0.00      0     0.0  0.00   0.0   0.116   0.000   68.4    47   47.4   66.8   8.78  .0751    0.000   212    5    100.0   10 
10/19/18  6:10a   48.3   48.4   48.3    92   46.1   2.0   ENE   0.33   5.0     E   48.3   48.6   48.6   46.0  30.247  0.00  0.00     0     0.00      0     0.0  0.00   0.0   0.116   0.000   68.4    47   47.4   66.8   8.78  .0751    0.000   207    5    100.0   10 
10/19/18  6:20a   47.7   48.3   47.7    92   45.5   0.0   ENE   0.00   1.0   ENE   47.7   48.0   48.0   45.4  30.249  0.00  0.00     0     0.00      0     0.0  0.00   0.0   0.120   0.000   68.4    47   47.4   66.8   8.78  .0752    0.000   212    5    100.0   10 
10/19/18  6:30a   47.3   47.7   47.3    92   45.1   0.0   ENE   0.00   1.0   ENE   47.3   47.6   47.6   45.0  30.251  0.00  0.00     0     0.00      0     0.0  0.00   0.0   0.123   0.000   68.3    47   47.3   66.7   8.78  .0752    0.000   213    5    100.0   10 
10/19/18  6:40a   46.9   47.3   46.9    92   44.7   0.0     E   0.00   1.0   ENE   46.9   47.1   47.1   44.4  30.252  0.00  0.00     0     0.00      0     0.0  0.00   0.0   0.126   0.000   68.2    47   47.2   66.6   8.79  .0752    0.000   210    5    100.0   10 
10/19/18  6:50a   47.3   47.3   46.9    93   45.4   1.0    NE   0.17   3.0    NE   47.3   47.6   47.6   45.0  30.255  0.00  0.00     0     0.00      0     0.0  0.00   0.0   0.123   0.000   68.2    47   47.2   66.6   8.79  .0752    0.000   213    5    100.0   10 
10/19/18  7:00a   48.0   48.0   47.3    93   46.1   1.0   ENE   0.17   3.0   ENE   48.0   48.3   48.3   45.7  30.256  0.00  0.00     0     0.00      0     0.0  0.00   0.0   0.118   0.000   68.2    47   47.2   66.6   8.79  .0752    0.000   209    5    100.0   10 
10/19/18  7:10a   48.5   48.5   48.0    93   46.6   2.0    NE   0.33   7.0     E   48.5   48.9   48.9   46.3  30.256  0.00  0.00     0     0.00      0     0.0  0.00   0.0   0.115   0.000   68.2    47   47.2   66.6   8.79  .0752    0.000   211    5    100.0   10 
10/19/18  7:20a   47.8   48.6   47.8    92   45.6   1.0   ENE   0.17   5.0    NE   47.8   48.1   48.1   45.5  30.254  0.00  0.00     0     0.00      0     0.0  0.00   0.0   0.119   0.000   68.2    47   47.2   66.6   8.79  .0752    0.000   213    5    100.0   10 
10/19/18  7:30a   47.5   47.7   47.4    92   45.3   1.0   ENE   0.17   4.0   NNE   47.5   47.8   47.8   45.2  30.256  0.00  0.00     0     0.00      0     0.0  0.00   0.0   0.122   0.000   68.2    47   47.2   66.6   8.79  .0752    0.000   210    5    100.0   10 
10/19/18  7:40a   47.3   47.5   47.3    92   45.1   0.0   NNE   0.00   1.0   NNE   47.3   47.6   47.6   45.0  30.257  0.00  0.00     3     0.04      5     0.0  0.00   0.0   0.123   0.000   68.3    48   47.8   66.8   8.88  .0752    0.000   212    5    100.0   10 
10/19/18  7:50a   47.2   47.3   47.1    92   45.0   1.0    NE   0.17   5.0   ENE   47.2   47.4   47.4   44.9  30.258  0.00  0.00     7     0.10      9     0.0  0.00   0.0   0.124   0.000   68.3    48   47.8   66.8   8.88  .0752    0.000   213    5    100.0   10 
10/19/18  8:00a   48.5   48.5   47.2    93   46.6   2.0   ENE   0.33   6.0    NE   48.5   48.9   48.9   46.6  30.263  0.00  0.00    14     0.20     25     0.0  0.00   0.0   0.115   0.000   68.4    48   47.9   66.9   8.88  .0752    0.000   211    5    100.0   10 
10/19/18  8:10a   49.0   49.1   48.6    93   47.1   2.0   ENE   0.33   5.0   ENE   49.0   49.4   49.4   47.5  30.264  0.00  0.00    29     0.42     33     0.0  0.00   0.0   0.111   0.000   68.4    48   47.9   66.9   8.88  .0752    0.000   211    5    100.0   10 
10/19/18  8:20a   48.5   49.1   48.5    92   46.3   0.0   ENE   0.00   2.0   ENE   48.5   48.8   48.8   47.1  30.266  0.00  0.00    38     0.54     54     0.0  0.00   0.0   0.115   0.000   68.5    48   48.0   66.9   8.88  .0752    0.000   212    5    100.0   10 
10/19/18  8:30a   48.3   48.5   48.2    92   46.1   1.0     E   0.17   3.0     E   48.3   48.6   48.6   47.9  30.268  0.00  0.00    80     1.15     98     0.0  0.00   0.0   0.116   0.000   68.5    48   48.0   66.9   8.88  .0752    0.000   213    5    100.0   10 
10/19/18  8:40a   48.7   48.7   48.3    93   46.8   0.0     E   0.00   2.0     E   48.7   49.1   49.1   50.0  30.272  0.00  0.00    67     0.96     98     0.0  0.00   0.0   0.113   0.000   68.5    48   48.0   66.9   8.88  .0752    0.000   213    5    100.0   10 
10/19/18  8:50a   49.0   49.0   48.7    93   47.1   1.0     E   0.17   2.0     E   49.0   49.4   49.4   50.8  30.277  0.00  0.00    78     1.12     93     0.0  0.00   0.0   0.111   0.000   68.5    48   48.0   66.9   8.88  .0752    0.000   212    5    100.0   10 
10/19/18  9:00a   49.1   49.1   49.0    93   47.2   0.0     E   0.00   2.0     E   49.1   49.5   49.5   51.1  30.278  0.00  0.00    83     1.19    123     0.0  0.00   0.0   0.110   0.000   68.5    48   48.0   66.9   8.88  .0752    0.001   209    5    100.0   10 
10/19/18  9:10a   49.2   49.2   49.1    93   47.3   0.0     E   0.00   2.0     E   49.2   49.6   49.6   53.9  30.281  0.00  0.00   158     2.26    264     0.0  0.00   0.0   0.110   0.000   68.5    48   48.0   66.9   8.88  .0752    0.000   212    5    100.0   10 
10/19/18  9:20a   49.9   49.9   49.2    93   48.0   2.0   ENE   0.33   5.0   ENE   49.9   50.3   50.3   58.0  30.281  0.00  0.00   280     4.01    385     0.0  0.00   0.0   0.105   0.000   68.5    48   48.0   66.9   8.88  .0752    0.000   214    5    100.0   10 
10/19/18  9:30a   50.0   50.2   49.9    93   48.1   4.0    NE   0.67   8.0   NNE   48.9   50.4   49.3   53.2  30.283  0.00  0.00   149     2.14    199     0.0  0.00   0.0   0.104   0.000   68.6    48   48.1   67.0   8.88  .0752    0.000   212    5    100.0   10 
10/19/18  9:40a   49.9   50.0   49.9    93   48.0   4.0    NE   0.67   8.0   ENE   48.8   50.3   49.2   51.2  30.283  0.00  0.00   101     1.45    111     0.0  0.00   0.0   0.105   0.000   68.5    48   48.0   66.9   8.88  .0752    0.000   211    5    100.0   10 
10/19/18  9:50a   49.6   49.9   49.6    92   47.4   5.0    NE   0.83  10.0   NNE   47.7   50.0   48.1   50.0  30.284  0.00  0.00   102     1.46    120     0.0  0.00   0.0   0.107   0.000   68.6    48   48.1   67.0   8.88  .0752    0.000   213    5    100.0   10 
10/19/18 10:00a   49.5   49.6   49.5    93   47.6   6.0    NE   1.00  11.0    NE   47.1   49.9   47.5   50.7  30.287  0.00  0.00   142     2.04    169     0.0  0.00   0.0   0.108   0.000   68.6    48   48.1   67.0   8.88  .0752    0.003   209    5    100.0   10 
10/19/18 10:10a   49.7   49.7   49.5    93   47.8   6.0    NE   1.00  11.0     N   47.3   50.1   47.7   51.6  30.285  0.00  0.00   170     2.44    193     0.0  0.00   0.0   0.106   0.000   68.6    48   48.1   67.0   8.88  .0752    0.000   211    5    100.0   10 
10/19/18 10:20a   49.9   49.9   49.7    93   48.0   6.0   ENE   1.00   9.0   ENE   47.6   50.3   48.0   52.9  30.286  0.00  0.00   206     2.95    230     0.0  0.00   0.0   0.105   0.000   68.6    48   48.1   67.0   8.88  .0752    0.000   212    5    100.0   10 
10/19/18 10:30a   50.4   50.4   49.9    93   48.5   5.0   ENE   0.83  11.0   ENE   48.7   50.8   49.1   55.2  30.286  0.00  0.00   250     3.58    304     0.0  0.00   0.0   0.101   0.000   68.6    48   48.1   67.0   8.88  .0752    0.000   213    5    100.0   10 
10/19/18 10:40a   51.0   51.0   50.5    93   49.0   4.0   ENE   0.67  10.0   ENE   50.0   51.3   50.3   57.4  30.286  0.00  0.00   294     4.21    362     0.0  0.00   0.0   0.097   0.000   68.6    48   48.1   67.0   8.88  .0752    0.000   212    5    100.0   10 
10/19/18 10:50a   50.5   51.0   50.5    92   48.3   6.0    NE   1.00  11.0    NE   48.3   50.8   48.6   52.6  30.287  0.00  0.00   188     2.70    206     0.0  0.00   0.0   0.101   0.000   68.6    48   48.1   67.0   8.88  .0752    0.000   214    5    100.0   10 
10/19/18 11:00a   50.3   50.5   50.3    92   48.1   7.0    NE   1.17  13.0    NE   47.6   50.7   48.0   52.1  30.287  0.00  0.00   199     2.85    221     0.0  0.00   0.0   0.102   0.000   68.6    48   48.1   67.0   8.88  .0752    0.004   211    5    100.0   10 
10/19/18 11:10a   50.0   50.3   50.0    92   47.8   8.0    NE   1.33  13.0   NNE   46.5   50.4   46.9   51.3  30.289  0.00  0.00   222     3.18    251     0.0  0.00   0.0   0.104   0.000   68.6    48   48.1   67.0   8.88  .0752    0.000   213    5    100.0   10 
10/19/18 11:20a   50.4   50.4   50.0    92   48.2   6.0    NE   1.00  13.0    NE   48.2   50.7   48.5   53.3  30.290  0.00  0.00   230     3.30    262     0.0  0.00   0.0   0.101   0.000   68.6    48   48.1   67.0   8.88  .0752    0.000   213    5    100.0   10 
10/19/18 11:30a   50.6   50.6   50.4    92   48.4   7.0    NE   1.17  12.0   NNE   47.9   50.9   48.2   52.8  30.289  0.00  0.00   231     3.31    248     0.0  0.00   0.0   0.100   0.000   68.6    48   48.1   67.0   8.88  .0752    0.000   212    5    100.0   10 
10/19/18 11:40a   50.8   50.8   50.6    92   48.6   7.0    NE   1.17  12.0   ENE   48.2   51.1   48.5   52.6  30.290  0.00  0.00   217     3.11    229     0.0  0.00   0.0   0.099   0.000   68.6    48   48.1   67.0   8.88  .0752    0.000   213    5    100.0   10 
10/19/18 11:50a   51.1   51.1   50.7    92   48.9   7.0    NE   1.17  12.0   NNE   48.5   51.4   48.8   53.9  30.292  0.00  0.00   258     3.70    288     0.0  0.00   0.0   0.097   0.000   68.7    48   48.2   67.1   8.88  .0752    0.000   213    5    100.0   10 
10/19/18 12:00p   51.3   51.4   51.1    92   49.1   6.0    NE   1.00  15.0   ENE   49.2   51.6   49.5   53.6  30.290  0.00  0.00   215     3.08    232     0.0  0.00   0.0   0.095   0.000   68.7    48   48.2   67.1   8.88  .0752    0.004   212    5    100.0   10 
10/19/18 12:10p   51.2   51.4   51.1    92   49.0   7.0    NE   1.17  15.0    NE   48.6   51.5   48.9   52.6  30.289  0.00  0.00   209     3.00    216     0.0  0.00   0.0   0.096   0.000   68.7    48   48.2   67.1   8.88  .0752    0.000   211    5    100.0   10 
10/19/18 12:20p   51.2   51.3   51.2    92   49.0   8.0    NE   1.33  14.0   NNE   47.9   51.5   48.2   52.2  30.288  0.00  0.00   225     3.23    241     0.0  0.00   0.0   0.096   0.000   68.7    48   48.2   67.1   8.88  .0752    0.000   211    5    100.0   10 
10/19/18 12:30p   51.0   51.2   50.9    92   48.8   9.0    NE   1.50  16.0    NE   47.1   51.3   47.4   51.0  30.286  0.00  0.00   217     3.11    234     0.0  0.00   0.0   0.097   0.000   68.7    48   48.2   67.1   8.88  .0752    0.000   210    5    100.0   10 
10/19/18 12:40p   51.2   51.2   50.9    92   49.0   8.0   NNE   1.33  14.0    NE   47.9   51.5   48.2   52.3  30.284  0.00  0.00   235     3.37    264     0.0  0.00   0.0   0.096   0.000   68.7    48   48.2   67.1   8.88  .0752    0.000   212    5    100.0   10 
10/19/18 12:50p   51.5   51.5   51.2    92   49.3   8.0   NNE   1.33  13.0   NNE   48.3   51.8   48.6   53.5  30.280  0.00  0.00   273     3.91    318     0.0  0.00   0.0   0.094   0.000   68.8    48   48.3   67.2   8.87  .0751    0.000   213    5    100.0   10 
10/19/18  1:00p   51.8   51.9   51.5    91   49.3   9.0    NE   1.50  15.0    NE   48.0   52.0   48.2   53.4  30.276  0.00  0.00   294     4.21    313     0.0  0.00   0.0   0.092   0.000   69.0    48   48.5   67.4   8.87  .0751    0.005   212    5    100.0   10 
10/19/18  1:10p   51.9   52.0   51.8    91   49.4  10.0    NE   1.67  17.0    NE   47.5   52.1   47.7   52.5  30.273  0.00  0.00   285     4.09    336     0.0  0.00   0.0   0.091   0.000   69.1    48   48.6   67.5   8.87  .0751    0.000   211    5    100.0   10 
10/19/18  1:20p   51.9   52.0   51.9    91   49.4   9.0   NNE   1.50  17.0    NE   48.1   52.1   48.3   52.8  30.270  0.00  0.00   260     3.73    281     0.0  0.00   0.0   0.091   0.000   69.2    48   48.7   67.5   8.87  .0750    0.000   214    5    100.0   10 
10/19/18  1:30p   51.7   51.9   51.5    91   49.2  10.0    NE   1.67  15.0   NNE   47.3   51.9   47.5   51.5  30.268  0.00  0.00   243     3.48    257     0.0  0.00   0.0   0.092   0.000   69.2    48   48.7   67.5   8.87  .0750    0.000   211    5    100.0   10 
10/19/18  1:40p   51.6   51.7   51.6    91   49.1  11.0    NE   1.83  17.0   NNE   46.6   51.8   46.8   50.9  30.268  0.00  0.00   257     3.68    276     0.0  0.00   0.0   0.093   0.000   69.3    48   48.8   67.6   8.86  .0750    0.000   211    5    100.0   10 
10/19/18  1:50p   51.8   51.8   51.5    91   49.3   8.0   NNE   1.33  15.0   NNE   48.7   52.0   48.9   53.7  30.263  0.00  0.00   270     3.87    299     0.0  0.00   0.0   0.092   0.000   69.3    48   48.8   67.6   8.86  .0750    0.000   212    5    100.0   10 
10/19/18  2:00p   51.9   52.0   51.8    91   49.4  10.0   NNE   1.67  17.0     N   47.5   52.1   47.7   52.9  30.260  0.00  0.00   304     4.36    348     0.0  0.00   0.0   0.091   0.000   69.4    48   48.9   67.7   8.86  .0750    0.006   212    5    100.0   10 
10/19/18  2:10p   52.1   52.1   51.9    91   49.6   9.0    NE   1.50  14.0    NE   48.3   52.3   48.5   54.2  30.258  0.00  0.00   318     4.56    366     0.0  0.00   0.0   0.090   0.000   69.4    48   48.9   67.7   8.86  .0750    0.000   211    5    100.0   10 
10/19/18  2:20p   52.3   52.3   52.1    91   49.8   8.0    NE   1.33  13.0    NE   49.3   52.5   49.5   54.8  30.258  0.00  0.00   287     4.11    308     0.0  0.00   0.0   0.088   0.000   69.5    48   48.9   67.8   8.86  .0750    0.000   213    5    100.0   10 
10/19/18  2:30p   52.4   52.5   52.3    91   49.8   8.0   NNE   1.33  14.0    NE   49.4   52.6   49.6   54.5  30.256  0.00  0.00   265     3.80    304     0.0  0.00   0.0   0.087   0.000   69.6    48   49.0   67.8   8.86  .0749    0.000   211    5    100.0   10 
10/19/18  2:40p   52.2   52.4   52.2    90   49.4   9.0    NE   1.50  15.0   NNE   48.4   52.4   48.6   52.5  30.257  0.00  0.00   227     3.25    246     0.0  0.00   0.0   0.089   0.000   69.6    48   49.0   67.8   8.86  .0749    0.000   211    5    100.0   10 
10/19/18  2:50p   52.0   52.2   52.0    90   49.2  10.0    NE   1.67  16.0   NNE   47.6   52.2   47.8   50.7  30.254  0.00  0.00   187     2.68    221     0.0  0.00   0.0   0.090   0.000   69.7    48   49.1   67.9   8.86  .0749    0.000   212    5    100.0   10 
10/19/18  3:00p   52.1   52.2   52.0    91   49.6   9.0    NE   1.50  16.0    NE   48.3   52.3   48.5   52.0  30.251  0.00  0.00   203     2.91    230     0.0  0.00   0.0   0.090   0.000   69.7    48   49.1   67.9   8.86  .0749    0.005   213    5    100.0   10 
10/19/18  3:10p   52.1   52.3   52.1    90   49.3   9.0   ENE   1.50  15.0   NNE   48.3   52.3   48.5   51.5  30.250  0.00  0.00   179     2.57    225     0.0  0.00   0.0   0.090   0.000   69.7    48   49.1   67.9   8.86  .0749    0.000   213    5    100.0   10 
10/19/18  3:20p   52.0   52.1   51.9    91   49.5   8.0    NE   1.33  14.0    NE   48.9   52.2   49.1   51.7  30.249  0.00  0.00   158     2.26    178     0.0  0.00   0.0   0.090   0.000   69.7    48   49.1   67.9   8.86  .0749    0.000   212    5    100.0   10 
10/19/18  3:30p   51.9   52.1   51.9    91   49.4   9.0    NE   1.50  15.0   NNE   48.1   52.1   48.3   51.1  30.249  0.00  0.00   169     2.42    188     0.0  0.00   0.0   0.091   0.000   69.7    48   49.1   67.9   8.86  .0749    0.000   213    5    100.0   10 
10/19/18  3:40p   51.9   51.9   51.9    91   49.4   9.0    NE   1.50  15.0   NNE   48.1   52.1   48.3   50.6  30.250  0.00  0.00   145     2.08    174     0.0  0.00   0.0   0.091   0.000   69.7    48   49.1   67.9   8.86  .0749    0.000   212    5    100.0   10 
10/19/18  3:50p   52.0   52.1   51.9    91   49.5   9.0    NE   1.50  15.0   NNE   48.2   52.2   48.4   50.3  30.249  0.00  0.00   126     1.81    137     0.0  0.00   0.0   0.090   0.000   69.7    48   49.1   67.9   8.86  .0749    0.000   212    5    100.0   10 
10/19/18  4:00p   51.8   51.9   51.8    91   49.3  10.0    NE   1.67  17.0    NE   47.4   52.0   47.6   49.0  30.246  0.00  0.00   111     1.59    118     0.0  0.00   0.0   0.092   0.000   69.7    48   49.1   67.9   8.86  .0749    0.003   212    5    100.0   10 
10/19/18  4:10p   51.8   51.8   51.7    91   49.3  10.0    NE   1.67  17.0    NE   47.4   52.0   47.6   49.0  30.246  0.00  0.00   108     1.55    118     0.0  0.00   0.0   0.092   0.000   69.7    48   49.1   67.9   8.86  .0749    0.000   212    5    100.0   10 
10/19/18  4:20p   52.0   52.0   51.8    91   49.5  10.0    NE   1.67  15.0   ENE   47.6   52.2   47.8   48.9  30.247  0.00  0.00    96     1.38    109     0.0  0.00   0.0   0.090   0.000   69.7    48   49.1   67.9   8.86  .0749    0.000   211    5    100.0   10 
10/19/18  4:30p   51.9   52.0   51.9    91   49.4  10.0    NE   1.67  17.0    NE   47.5   52.1   47.7   48.5  30.245  0.00  0.00    83     1.19     98     0.0  0.00   0.0   0.091   0.000   69.7    48   49.1   67.9   8.86  .0749    0.000   210    5    100.0   10 
10/19/18  4:40p   51.9   51.9   51.9    91   49.4  11.0   ENE   1.83  16.0    NE   47.0   52.1   47.2   47.8  30.244  0.00  0.00    74     1.06     83     0.0  0.00   0.0   0.091   0.000   69.7    48   49.1   67.9   8.86  .0749    0.000   213    5    100.0   10 
10/19/18  4:50p   51.9   51.9   51.8    91   49.4  11.0   ENE   1.83  18.0   NNE   47.0   52.1   47.2   47.4  30.242  0.00  0.00    60     0.86     69     0.0  0.00   0.0   0.091   0.000   69.7    48   49.1   67.9   8.86  .0749    0.000   212    5    100.0   10 
10/19/18  5:00p   52.0   52.0   51.9    91   49.5  11.0   ENE   1.83  16.0    NE   47.1   52.2   47.3   47.0  30.243  0.00  0.00    46     0.66     54     0.0  0.00   0.0   0.090   0.000   69.7    48   49.1   67.9   8.86  .0749    0.002   211    5    100.0   10 
10/19/18  5:10p   51.8   52.0   51.8    91   49.3  10.0    NE   1.67  18.0   ENE   47.4   52.0   47.6   47.1  30.243  0.00  0.00    36     0.52     42     0.0  0.00   0.0   0.092   0.000   69.6    48   49.0   67.8   8.86  .0749    0.000   213    5    100.0   10 
10/19/18  5:20p   51.5   51.8   51.4    91   49.0  11.0   ENE   1.83  18.0    NE   46.5   51.7   46.7   45.9  30.243  0.00  0.00    30     0.43     35     0.0  0.00   0.0   0.094   0.000   69.7    48   49.1   67.9   8.86  .0749    0.000   212    5    100.0   10 
Email: AdamSPAM@StormwatchersRetreat.com (To send me email remove the word 'SPAM' from my email address.)